createdAt,value
2023-01-31T00:00:55.561Z,100423.66
2023-01-31T00:03:26.746Z,100424.50
2023-01-31T00:05:57.642Z,100428.09
2023-01-31T00:08:28.144Z,100424.13
2023-01-31T00:11:02.080Z,100420.97
2023-01-31T00:13:32.877Z,100417.34
2023-01-31T00:16:03.675Z,100417.34
2023-01-31T00:18:34.561Z,100423.75
2023-01-31T00:21:11.239Z,100413.38
2023-01-31T00:23:43.655Z,100419.00
2023-01-31T00:26:19.052Z,100420.97
2023-01-31T00:28:51.162Z,100419.00
2023-01-31T00:31:24.060Z,100413.03
2023-01-31T00:33:57.152Z,100399.00
2023-01-31T00:36:31.725Z,100404.63
2023-01-31T00:39:05.359Z,100395.41
2023-01-31T00:41:40.427Z,100388.53
2023-01-31T00:44:11.942Z,100408.50
2023-01-31T00:46:43.158Z,100398.13
2023-01-31T00:49:14.223Z,100370.53
2023-01-31T00:51:45.196Z,100369.38
2023-01-31T00:54:15.718Z,100362.25
2023-01-31T00:56:48.921Z,100357.09
2023-01-31T00:59:18.998Z,100355.91
2023-01-31T01:01:50.015Z,100354.41
2023-01-31T01:04:20.988Z,100364.41
2023-01-31T01:06:53.367Z,100406.09
2023-01-31T01:09:26.032Z,100420.81
2023-01-31T01:11:58.750Z,100393.06
2023-01-31T01:14:29.375Z,100385.28
2023-01-31T01:17:00.576Z,100398.34
2023-01-31T01:19:31.403Z,100392.56
2023-01-31T01:22:01.965Z,100414.41
2023-01-31T01:24:32.980Z,100407.44
2023-01-31T01:27:05.442Z,100392.03
2023-01-31T01:29:36.372Z,100388.31
2023-01-31T01:32:08.246Z,100393.44
2023-01-31T01:34:39.616Z,100386.91
2023-01-31T01:37:20.352Z,100389.63
2023-01-31T01:39:52.390Z,100392.78
2023-01-31T01:42:28.461Z,100396.75
2023-01-31T01:45:01.537Z,100393.84
2023-01-31T01:47:47.549Z,100389.31
2023-01-31T01:50:24.907Z,100377.19
2023-01-31T01:53:00.930Z,100379.19
2023-01-31T01:55:39.367Z,100388.38
2023-01-31T01:58:21.564Z,100374.41
2023-01-31T02:00:53.560Z,100374.28
2023-01-31T02:03:25.198Z,100374.19
2023-01-31T02:06:00.348Z,100373.72
2023-01-31T02:08:36.096Z,100378.06
2023-01-31T02:11:14.403Z,100376.75
2023-01-31T02:13:50.005Z,100375.94
2023-01-31T02:16:20.388Z,100378.75
2023-01-31T02:18:53.164Z,100374.78
2023-01-31T02:22:11.260Z,100369.19
2023-01-31T02:25:41.282Z,100359.06
2023-01-31T02:29:04.036Z,100377.69
2023-01-31T02:32:06.240Z,100374.09
2023-01-31T02:34:54.596Z,100390.06
2023-01-31T02:38:27.006Z,100378.75
2023-01-31T02:41:15.194Z,100389.47
2023-01-31T02:44:13.412Z,100388.69
2023-01-31T02:46:57.752Z,100380.28
2023-01-31T02:49:40.098Z,100382.38
2023-01-31T02:52:23.850Z,100384.03
2023-01-31T02:55:29.397Z,100378.44
2023-01-31T02:58:03.330Z,100373.53
2023-01-31T03:00:38.587Z,100369.91
2023-01-31T03:03:15.778Z,100367.09
2023-01-31T03:05:46.655Z,100368.75
2023-01-31T03:08:23.379Z,100361.66
2023-01-31T03:11:07.114Z,100358.50
2023-01-31T03:13:51.708Z,100350.91
2023-01-31T03:16:48.175Z,100359.75
2023-01-31T03:19:25.853Z,100369.78
2023-01-31T03:22:04.881Z,100377.00
2023-01-31T03:24:37.880Z,100415.47
2023-01-31T03:27:09.716Z,100404.72
2023-01-31T03:29:41.796Z,100394.84
2023-01-31T03:32:21.030Z,100415.59
2023-01-31T03:34:52.410Z,100425.50
2023-01-31T03:37:33.469Z,100412.09
2023-01-31T03:40:13.758Z,100428.31
2023-01-31T03:42:52.654Z,100437.66
2023-01-31T03:45:31.250Z,100489.84
2023-01-31T03:48:08.088Z,100485.66
2023-01-31T03:50:46.988Z,100466.63
2023-01-31T03:53:24.644Z,100437.72
2023-01-31T03:56:05.091Z,100438.66
2023-01-31T03:58:48.085Z,100432.34
2023-01-31T04:01:21.358Z,100403.81
2023-01-31T04:03:59.079Z,100411.63
2023-01-31T04:06:32.264Z,100404.47
2023-01-31T04:09:03.260Z,100383.91
2023-01-31T04:11:42.272Z,100383.63
2023-01-31T04:14:13.730Z,100385.81
2023-01-31T04:16:44.633Z,100390.50
2023-01-31T04:19:15.207Z,100386.41
2023-01-31T04:21:45.717Z,100400.03
2023-01-31T04:24:16.662Z,100403.63
2023-01-31T04:26:48.638Z,100408.88
2023-01-31T04:29:19.490Z,100428.91
2023-01-31T04:31:50.192Z,100450.06
2023-01-31T04:34:20.646Z,100473.94
2023-01-31T04:36:50.732Z,100473.00
2023-01-31T04:39:20.669Z,100461.69
2023-01-31T04:41:52.678Z,100457.94
2023-01-31T04:44:23.399Z,100448.13
2023-01-31T04:46:54.109Z,100430.78
2023-01-31T04:49:24.611Z,100424.25
2023-01-31T04:51:55.434Z,100434.44
2023-01-31T04:54:26.131Z,100432.38
2023-01-31T04:57:04.286Z,100426.66
2023-01-31T04:59:34.920Z,100422.56
2023-01-31T05:02:07.255Z,100424.53
2023-01-31T05:04:37.173Z,100419.78
2023-01-31T05:07:07.868Z,100434.56
2023-01-31T05:09:38.101Z,100430.59
2023-01-31T05:12:11.858Z,100422.22
2023-01-31T05:14:42.391Z,100431.41
2023-01-31T05:17:13.144Z,100437.81
2023-01-31T05:19:44.784Z,100426.97
2023-01-31T05:22:15.751Z,100436.88
2023-01-31T05:24:46.337Z,100441.63
2023-01-31T05:27:18.939Z,100443.59
2023-01-31T05:29:49.855Z,100438.81
2023-01-31T05:32:20.699Z,100436.03
2023-01-31T05:34:51.538Z,100442.09
2023-01-31T05:37:22.312Z,100444.56
2023-01-31T05:39:52.040Z,100437.47
2023-01-31T05:42:24.344Z,100430.03
2023-01-31T05:44:54.931Z,100419.34
2023-01-31T05:47:25.956Z,100411.09
2023-01-31T05:49:56.131Z,100411.56
2023-01-31T05:52:25.936Z,100411.25
2023-01-31T05:54:57.393Z,100404.47
2023-01-31T05:57:29.748Z,100386.56
2023-01-31T06:00:01.372Z,100390.50
2023-01-31T06:02:32.495Z,100392.50
2023-01-31T06:05:03.603Z,100402.88
2023-01-31T06:07:34.131Z,100409.72
2023-01-31T06:10:05.536Z,100394.63
2023-01-31T06:12:38.507Z,100424.16
2023-01-31T06:15:10.427Z,100431.34
2023-01-31T06:17:41.394Z,100450.59
2023-01-31T06:20:13.846Z,100459.44
2023-01-31T06:22:45.121Z,100476.50
2023-01-31T06:25:16.024Z,100471.28
2023-01-31T06:27:49.245Z,100459.63
2023-01-31T06:30:20.125Z,100475.91
2023-01-31T06:32:50.899Z,100460.00
2023-01-31T06:35:21.866Z,100469.53
2023-01-31T06:37:52.739Z,100471.47
2023-01-31T06:40:23.724Z,100485.44
2023-01-31T06:42:55.720Z,100473.47
2023-01-31T06:45:26.679Z,100487.06
2023-01-31T06:47:57.138Z,100491.50
2023-01-31T06:50:27.818Z,100486.75
2023-01-31T06:52:59.856Z,100492.00
2023-01-31T06:55:30.458Z,100500.84
2023-01-31T06:58:03.286Z,100501.31
2023-01-31T07:00:41.289Z,100495.75
2023-01-31T07:03:11.991Z,100501.78
2023-01-31T07:05:42.500Z,100494.75
2023-01-31T07:08:12.485Z,100496.03
2023-01-31T07:10:42.675Z,100496.81
2023-01-31T07:13:15.184Z,100503.72
2023-01-31T07:15:46.168Z,100515.34
2023-01-31T07:18:16.698Z,100515.81
2023-01-31T07:20:47.142Z,100521.53
2023-01-31T07:23:17.788Z,100525.97
2023-01-31T07:25:48.560Z,100533.19
2023-01-31T07:28:21.385Z,100532.53
2023-01-31T07:30:52.516Z,100544.63
2023-01-31T07:33:22.756Z,100554.31
2023-01-31T07:35:53.376Z,100564.78
2023-01-31T07:38:23.524Z,100570.03
2023-01-31T07:40:53.569Z,100576.91
2023-01-31T07:43:25.956Z,100567.38
2023-01-31T07:45:57.172Z,100569.69
2023-01-31T07:48:28.895Z,100577.59
2023-01-31T07:51:04.109Z,100575.84
2023-01-31T07:53:40.445Z,100562.75
2023-01-31T07:56:14.184Z,100570.88
2023-01-31T07:58:48.511Z,100558.28
2023-01-31T08:01:38.490Z,100555.66
2023-01-31T08:04:20.469Z,100548.31
2023-01-31T08:06:55.982Z,100566.91
2023-01-31T08:09:27.255Z,100565.63
2023-01-31T08:11:58.017Z,100555.13
2023-01-31T08:14:29.829Z,100544.28
2023-01-31T08:17:00.874Z,100538.72
2023-01-31T08:19:31.769Z,100541.50
2023-01-31T08:22:02.457Z,100539.50
2023-01-31T08:24:33.432Z,100553.16
2023-01-31T08:27:03.848Z,100541.63
2023-01-31T08:29:36.553Z,100548.50
2023-01-31T08:32:06.879Z,100550.16
2023-01-31T08:34:37.146Z,100544.69
2023-01-31T08:37:07.888Z,100540.88
2023-01-31T08:39:38.423Z,100534.66
2023-01-31T08:42:09.137Z,100532.81
2023-01-31T08:44:42.338Z,100525.03
2023-01-31T08:47:14.905Z,100518.75
2023-01-31T08:49:45.781Z,100516.09
2023-01-31T08:52:16.292Z,100521.13
2023-01-31T08:54:46.912Z,100512.84
2023-01-31T08:57:17.579Z,100495.88
2023-01-31T08:59:49.658Z,100494.97
2023-01-31T09:02:20.677Z,100488.47
2023-01-31T09:04:53.172Z,100491.66
2023-01-31T09:07:23.617Z,100483.59
2023-01-31T09:09:55.205Z,100481.22
2023-01-31T09:12:25.164Z,100480.75
2023-01-31T09:14:58.985Z,100482.72
2023-01-31T09:17:29.241Z,100477.81
2023-01-31T09:20:00.715Z,100484.47
2023-01-31T09:22:34.531Z,100476.28
2023-01-31T09:25:06.784Z,100478.50
2023-01-31T09:27:39.650Z,100478.25
2023-01-31T09:30:17.789Z,100471.16
2023-01-31T09:32:48.012Z,100478.38
2023-01-31T09:35:19.824Z,100473.22
2023-01-31T09:37:50.703Z,100466.81
2023-01-31T09:40:26.959Z,100468.00
2023-01-31T09:42:59.499Z,100477.91
2023-01-31T09:45:38.428Z,100464.16
2023-01-31T09:48:13.502Z,100468.84
2023-01-31T09:50:51.403Z,100471.97
2023-01-31T09:53:25.789Z,100486.69
2023-01-31T09:56:21.562Z,100481.69
2023-01-31T09:59:02.035Z,100480.72
2023-01-31T10:01:52.099Z,100477.03
2023-01-31T10:04:51.847Z,100484.13
2023-01-31T10:07:32.234Z,100476.56
2023-01-31T10:10:14.301Z,100485.75
2023-01-31T10:12:51.980Z,100480.16
2023-01-31T10:15:35.166Z,100478.53
2023-01-31T10:18:16.556Z,100470.50
2023-01-31T10:20:52.697Z,100474.91
2023-01-31T10:23:33.366Z,100479.34
2023-01-31T10:26:09.642Z,100473.75
2023-01-31T10:28:51.217Z,100475.38
2023-01-31T10:31:33.735Z,100475.88
2023-01-31T10:34:16.621Z,100470.38
2023-01-31T10:36:56.496Z,100473.28
2023-01-31T10:39:34.447Z,100465.00
2023-01-31T10:42:22.451Z,100464.75
2023-01-31T10:44:58.556Z,100460.56
2023-01-31T10:47:36.479Z,100459.97
2023-01-31T10:50:19.735Z,100454.09
2023-01-31T10:53:17.195Z,100440.31
2023-01-31T10:56:06.971Z,100438.13
2023-01-31T10:58:40.259Z,100435.44
2023-01-31T11:01:15.253Z,100424.78
2023-01-31T11:03:54.876Z,100423.38
2023-01-31T11:06:28.586Z,100421.47
2023-01-31T11:09:03.867Z,100445.97
2023-01-31T11:11:34.593Z,100480.84
2023-01-31T11:14:07.835Z,100474.91
2023-01-31T11:16:43.401Z,100472.44
2023-01-31T11:19:26.573Z,100474.34
2023-01-31T11:21:59.784Z,100473.06
2023-01-31T11:24:35.489Z,100467.00
2023-01-31T11:27:10.198Z,100476.94
2023-01-31T11:29:44.234Z,100472.50
2023-01-31T11:32:22.389Z,100477.28
2023-01-31T11:35:01.881Z,100464.09
2023-01-31T11:37:36.932Z,100457.34
2023-01-31T11:40:24.613Z,100462.56
2023-01-31T11:42:56.292Z,100460.25
2023-01-31T11:45:31.271Z,100463.94
2023-01-31T11:48:12.669Z,100469.22
2023-01-31T11:50:47.647Z,100464.03
2023-01-31T11:53:26.597Z,100450.50
2023-01-31T11:56:16.222Z,100452.97
2023-01-31T11:58:50.160Z,100461.38
2023-01-31T12:01:23.796Z,100457.38
2023-01-31T12:04:04.131Z,100469.41
2023-01-31T12:06:38.999Z,100476.66
2023-01-31T12:09:25.502Z,100474.31
2023-01-31T12:11:58.766Z,100473.84
2023-01-31T12:14:41.927Z,100480.63
2023-01-31T12:17:18.136Z,100476.19
2023-01-31T12:20:25.211Z,100477.81
2023-01-31T12:23:14.890Z,100468.56
2023-01-31T12:26:05.989Z,100470.69
2023-01-31T12:29:04.628Z,100472.78
2023-01-31T12:32:06.734Z,100472.88
2023-01-31T12:35:13.288Z,100484.16
2023-01-31T12:38:03.789Z,100479.84
2023-01-31T12:40:44.966Z,100475.53
2023-01-31T12:43:44.118Z,100488.00
2023-01-31T12:46:28.058Z,100484.84
2023-01-31T12:49:45.024Z,100485.19
2023-01-31T12:52:27.098Z,100477.50
2023-01-31T12:55:18.910Z,100473.44
2023-01-31T12:58:05.963Z,100495.84
2023-01-31T13:00:47.504Z,100493.41
2023-01-31T13:03:56.438Z,100489.78
2023-01-31T13:06:33.408Z,100492.94
2023-01-31T13:09:13.518Z,100488.16
2023-01-31T13:11:50.399Z,100490.59
2023-01-31T13:14:25.769Z,100497.47
2023-01-31T13:17:02.728Z,100499.13
2023-01-31T13:19:41.726Z,100496.78
2023-01-31T13:22:19.785Z,100513.22
2023-01-31T13:24:59.980Z,100499.22
2023-01-31T13:27:39.165Z,100509.59
2023-01-31T13:30:24.066Z,100501.53
2023-01-31T13:32:59.313Z,100511.13
2023-01-31T13:35:40.566Z,100509.16
2023-01-31T13:38:17.686Z,100514.75
2023-01-31T13:40:53.500Z,100507.16
2023-01-31T13:43:24.905Z,100501.53
2023-01-31T13:46:03.367Z,100506.34
2023-01-31T13:48:43.052Z,100511.59
2023-01-31T13:51:19.749Z,100515.19
2023-01-31T13:53:55.989Z,100516.03
2023-01-31T13:56:31.588Z,100512.06
2023-01-31T13:59:04.343Z,100509.72
2023-01-31T14:01:45.212Z,100517.75
2023-01-31T14:04:40.116Z,100513.31
2023-01-31T14:07:26.151Z,100522.53
2023-01-31T14:10:37.881Z,100527.31
2023-01-31T14:13:40.208Z,100522.09
2023-01-31T14:16:46.585Z,100530.50
2023-01-31T14:20:27.554Z,100529.56
2023-01-31T14:23:35.344Z,100533.53
2023-01-31T14:26:05.949Z,100531.91
2023-01-31T14:28:43.222Z,100537.50
2023-01-31T14:31:17.159Z,100536.00
2023-01-31T14:33:50.999Z,100543.56
2023-01-31T14:37:03.634Z,100551.19
2023-01-31T14:40:08.417Z,100557.94
2023-01-31T14:43:15.197Z,100547.44
2023-01-31T14:46:30.906Z,100557.72
2023-01-31T14:49:46.628Z,100560.09
2023-01-31T14:52:53.614Z,100554.34
2023-01-31T14:55:50.915Z,100555.88
2023-01-31T14:58:28.405Z,100558.69
2023-01-31T15:01:03.733Z,100561.84
2023-01-31T15:03:39.325Z,100553.81
2023-01-31T15:06:16.095Z,100556.59
2023-01-31T15:08:51.862Z,100564.19
2023-01-31T15:11:44.690Z,100557.78
2023-01-31T15:14:35.169Z,100546.09
2023-01-31T15:17:32.126Z,100556.03
2023-01-31T15:20:21.005Z,100562.34
2023-01-31T15:22:54.862Z,100563.50
2023-01-31T15:25:35.834Z,100568.28
2023-01-31T15:28:08.258Z,100563.88
2023-01-31T15:30:41.044Z,100577.41
2023-01-31T15:33:22.837Z,100575.75
2023-01-31T15:35:59.693Z,100579.72
2023-01-31T15:38:37.193Z,100589.28
2023-01-31T15:41:25.554Z,100584.84
2023-01-31T15:43:58.265Z,100580.41
2023-01-31T15:46:33.181Z,100591.28
2023-01-31T15:49:04.249Z,100591.28
2023-01-31T15:51:34.336Z,100586.84
2023-01-31T15:54:08.703Z,100593.25
2023-01-31T15:56:44.356Z,100589.66
2023-01-31T15:59:17.794Z,100597.59
2023-01-31T16:01:53.420Z,100598.75
2023-01-31T16:04:25.785Z,100594.69
2023-01-31T16:06:56.741Z,100597.47
2023-01-31T16:09:31.645Z,100598.28
2023-01-31T16:12:06.045Z,100601.06
2023-01-31T16:14:37.862Z,100610.63
2023-01-31T16:17:08.669Z,100602.59
2023-01-31T16:19:39.222Z,100604.59
2023-01-31T16:22:29.380Z,100613.00
2023-01-31T16:25:02.421Z,100604.13
2023-01-31T16:27:40.079Z,100613.34
2023-01-31T16:30:19.006Z,100614.84
2023-01-31T16:32:52.013Z,100608.47
2023-01-31T16:35:29.287Z,100609.59
2023-01-31T16:38:08.378Z,100614.06
2023-01-31T16:40:49.526Z,100612.38
2023-01-31T16:43:29.299Z,100614.06
2023-01-31T16:46:03.332Z,100609.59
2023-01-31T16:48:37.124Z,100600.06
2023-01-31T16:51:43.720Z,100604.78
2023-01-31T16:54:27.973Z,100599.56
2023-01-31T16:57:26.218Z,100595.91
2023-01-31T17:00:00.867Z,100604.00
2023-01-31T17:02:35.437Z,100598.06
2023-01-31T17:05:34.705Z,100605.75
2023-01-31T17:08:07.105Z,100612.16
2023-01-31T17:10:38.831Z,100626.16
2023-01-31T17:13:19.066Z,100618.13
2023-01-31T17:15:53.750Z,100626.28
2023-01-31T17:18:24.132Z,100628.81
2023-01-31T17:20:54.398Z,100627.44
2023-01-31T17:23:24.982Z,100638.03
2023-01-31T17:25:55.597Z,100639.06
2023-01-31T17:28:25.974Z,100670.78
2023-01-31T17:30:58.860Z,100682.91
2023-01-31T17:33:29.257Z,100685.41
2023-01-31T17:36:00.519Z,100690.41
2023-01-31T17:38:30.901Z,100675.69
2023-01-31T17:41:01.423Z,100681.41
2023-01-31T17:43:32.165Z,100675.84
2023-01-31T17:46:04.059Z,100685.63
2023-01-31T17:48:34.521Z,100692.22
2023-01-31T17:51:05.055Z,100690.00
2023-01-31T17:53:47.681Z,100690.31
2023-01-31T17:56:21.414Z,100684.59
2023-01-31T17:58:52.945Z,100692.84
2023-01-31T18:01:25.553Z,100684.81
2023-01-31T18:03:57.071Z,100677.59
2023-01-31T18:06:27.636Z,100677.59
2023-01-31T18:08:57.683Z,100671.16
2023-01-31T18:11:28.238Z,100671.16
2023-01-31T18:13:59.530Z,100671.50
2023-01-31T18:16:32.527Z,100656.38
2023-01-31T18:19:06.837Z,100661.13
2023-01-31T18:21:43.878Z,100664.28
2023-01-31T18:24:17.462Z,100663.81
2023-01-31T18:26:48.895Z,100670.53
2023-01-31T18:29:23.851Z,100675.69
2023-01-31T18:31:58.183Z,100674.38
2023-01-31T18:34:28.400Z,100674.22
2023-01-31T18:36:59.336Z,100667.34
2023-01-31T18:39:29.920Z,100662.44
2023-01-31T18:42:00.637Z,100661.16
2023-01-31T18:44:31.695Z,100669.88
2023-01-31T18:47:03.863Z,100671.03
2023-01-31T18:49:33.851Z,100674.50
2023-01-31T18:52:04.442Z,100678.81
2023-01-31T18:54:34.488Z,100675.88
2023-01-31T18:57:05.215Z,100674.91
2023-01-31T18:59:37.158Z,100675.44
2023-01-31T19:02:12.539Z,100665.59
2023-01-31T19:04:43.022Z,100671.22
2023-01-31T19:07:13.060Z,100665.03
2023-01-31T19:09:43.201Z,100665.22
2023-01-31T19:12:13.766Z,100663.78
2023-01-31T19:14:46.794Z,100661.53
2023-01-31T19:17:21.236Z,100648.59
2023-01-31T19:19:52.870Z,100646.47
2023-01-31T19:22:23.214Z,100649.56
2023-01-31T19:24:53.895Z,100643.19
2023-01-31T19:27:23.995Z,100645.16
2023-01-31T19:29:54.923Z,100638.75
2023-01-31T19:32:29.603Z,100641.53
2023-01-31T19:35:00.382Z,100642.69
2023-01-31T19:37:32.293Z,100650.25
2023-01-31T19:40:02.859Z,100644.69
2023-01-31T19:42:33.561Z,100654.19
2023-01-31T19:45:04.765Z,100663.38
2023-01-31T19:47:37.618Z,100668.97
2023-01-31T19:50:09.307Z,100661.75
2023-01-31T19:52:39.978Z,100739.88
2023-01-31T19:55:11.299Z,100749.44
2023-01-31T19:57:41.345Z,100743.00
2023-01-31T20:00:21.337Z,100731.34
2023-01-31T20:02:53.210Z,100716.91
2023-01-31T20:05:23.899Z,100702.16
2023-01-31T20:07:54.812Z,100690.84
2023-01-31T20:10:24.778Z,100676.06
2023-01-31T20:12:56.176Z,100658.88
2023-01-31T20:15:26.660Z,100661.66
2023-01-31T20:18:00.011Z,100656.38
2023-01-31T20:20:30.601Z,100655.91
2023-01-31T20:23:01.963Z,100662.66
2023-01-31T20:25:32.613Z,100659.69
2023-01-31T20:28:03.566Z,100652.81
2023-01-31T20:30:33.694Z,100642.81
2023-01-31T20:33:06.156Z,100629.56
2023-01-31T20:35:36.359Z,100619.88
2023-01-31T20:38:06.724Z,100614.28
2023-01-31T20:40:38.027Z,100617.06
2023-01-31T20:43:09.189Z,100628.22
2023-01-31T20:45:39.946Z,100623.00
2023-01-31T20:48:12.807Z,100605.75
2023-01-31T20:50:43.222Z,100602.81
2023-01-31T20:53:23.510Z,100582.47
2023-01-31T20:56:03.084Z,100611.03
2023-01-31T20:58:35.795Z,100674.69
2023-01-31T21:01:08.785Z,100641.56
2023-01-31T21:03:41.417Z,100660.94
2023-01-31T21:06:11.823Z,100676.31
2023-01-31T21:08:43.023Z,100654.38
2023-01-31T21:11:16.607Z,100648.28
2023-01-31T21:13:47.669Z,100625.84
2023-01-31T21:16:18.925Z,100640.13
2023-01-31T21:18:51.289Z,100637.19
2023-01-31T21:21:25.847Z,100635.06
2023-01-31T21:23:58.627Z,100594.38
2023-01-31T21:26:29.660Z,100579.16
2023-01-31T21:29:03.895Z,100571.94
2023-01-31T21:31:34.985Z,100612.47
2023-01-31T21:34:08.085Z,100577.69
2023-01-31T21:36:38.768Z,100552.13
2023-01-31T21:39:09.677Z,100566.38
2023-01-31T21:41:56.972Z,100551.66
2023-01-31T21:44:27.983Z,100576.22
2023-01-31T21:46:58.387Z,100582.63
2023-01-31T21:49:30.501Z,100596.25
2023-01-31T21:52:00.836Z,100639.69
2023-01-31T21:54:31.571Z,100641.63
2023-01-31T21:57:02.455Z,100612.28
2023-01-31T21:59:32.903Z,100574.44
2023-01-31T22:02:03.869Z,100576.72
2023-01-31T22:04:36.779Z,100565.59
2023-01-31T22:07:06.906Z,100563.44
2023-01-31T22:09:37.187Z,100538.56
2023-01-31T22:12:08.568Z,100536.28
2023-01-31T22:14:39.905Z,100610.53
2023-01-31T22:17:10.254Z,100643.47
2023-01-31T22:19:43.085Z,100602.16
2023-01-31T22:22:13.961Z,100582.34
2023-01-31T22:24:45.149Z,100566.94
2023-01-31T22:27:15.869Z,100575.78
2023-01-31T22:29:46.086Z,100559.88
2023-01-31T22:32:16.472Z,100541.66
2023-01-31T22:34:48.820Z,100549.38
2023-01-31T22:37:19.424Z,100553.78
2023-01-31T22:39:49.494Z,100551.16
2023-01-31T22:42:19.471Z,100548.50
2023-01-31T22:44:49.300Z,100543.91
2023-01-31T22:47:19.533Z,100554.38
2023-01-31T22:49:51.687Z,100545.84
2023-01-31T22:52:21.705Z,100552.41
2023-01-31T22:54:52.214Z,100552.22
2023-01-31T22:57:22.988Z,100544.81
2023-01-31T22:59:53.436Z,100549.84
2023-01-31T23:02:23.900Z,100547.22
2023-01-31T23:04:56.346Z,100546.53
2023-01-31T23:07:26.714Z,100538.66
2023-01-31T23:09:56.945Z,100542.75
2023-01-31T23:12:27.583Z,100523.75
2023-01-31T23:14:58.098Z,100531.44
2023-01-31T23:17:40.500Z,100537.50
2023-01-31T23:20:16.961Z,100524.84
2023-01-31T23:22:48.822Z,100553.22
2023-01-31T23:25:19.455Z,100554.53
2023-01-31T23:27:50.841Z,100553.03
2023-01-31T23:30:22.707Z,100550.38
2023-01-31T23:32:53.497Z,100556.44
2023-01-31T23:35:24.924Z,100542.13
2023-01-31T23:37:55.164Z,100543.78
2023-01-31T23:40:25.788Z,100544.63
2023-01-31T23:42:56.355Z,100536.25
2023-01-31T23:45:26.851Z,100524.25
2023-01-31T23:47:57.691Z,100508.81
2023-01-31T23:50:30.114Z,100508.81
2023-01-31T23:53:01.212Z,100504.53
2023-01-31T23:55:31.667Z,100493.03
2023-01-31T23:58:01.957Z,100505.47
